Bay Area Logo

Santa Clara, CA Single Family Real Estate Listings

120 Total Real Estate Listings * Click on table heading to sort
Date Posted Property Type Style Address Price Living Area Lot Size Price/Sq Ft.
2018-03-23 Single Family 2095 Main Street Santa Clara, CA 95050 $1,288,890 1,285 sq. ft. 6,098 sq. ft. $1,003
2018-03-23 Single Family Mid Century Modern 2095 Main St Santa Clara, CA 95050 $1,288,890 1,285 sq. ft. 6,098 sq. ft. $1,003
2018-03-23 Single Family 1635 Main Street Santa Clara, CA 95050 $849,000 651 sq. ft. 7,841 sq. ft. $1,304
2018-03-22 Single Family 2076 Agnew Road Santa Clara, CA 95054 $899,000 937 sq. ft. 5,663 sq. ft. $959
2018-03-22 Single Family 2124 Talia Avenue Santa Clara, CA 95050 $1,399,950 1,489 sq. ft. 6,098 sq. ft. $940
2018-03-21 Single Family 1727 Cunningham Street Santa Clara, CA 95050 $1,398,000 1,421 sq. ft. 6,534 sq. ft. $984
2018-03-21 Single Family 480 Luther Drive Santa Clara, CA 95051 $1,898,890 2,268 sq. ft. 9,148 sq. ft. $837
2018-03-21 Single Family 472 Muriel Court Santa Clara, CA 95051 $1,499,000 1,442 sq. ft. 8,712 sq. ft. $1,040
2018-03-20 Single Family 2473 Borax Drive Santa Clara, CA 95051 $950,000 955 sq. ft. 5,663 sq. ft. $995
2018-03-20 Single Family 470 Kiely Boulevard Santa Clara, CA 95051 $1,850,000 2,036 sq. ft. 8,712 sq. ft. $909
2018-03-19 Single Family Contemporary 1772 Roll Street Santa Clara, CA 95050 $1,688,000 1,944 sq. ft. 6,098 sq. ft. $868
2018-03-17 Single Family Ranch 3591 Forest Avenue Santa Clara, CA 95050 $1,488,000 1,350 sq. ft. 6,534 sq. ft. $1,102
2018-03-15 Single Family Ranch 3487 Santa Barbara Avenue Santa Clara, CA 95051 $1,479,000 1,124 sq. ft. 5,663 sq. ft. $1,316
2018-03-15 Single Family 2241 Menzel Place Santa Clara, CA 95050 $1,995,000 2,979 sq. ft. 5,227 sq. ft. $670
2018-03-15 Single Family 933 Las Palmas Drive Santa Clara, CA 95051 $1,249,950 1,166 sq. ft. 5,663 sq. ft. $1,072
2018-03-14 Single Family 2113 Bohannon Drive Santa Clara, CA 95050 $1,424,950 1,777 sq. ft. 9,583 sq. ft. $802
2018-03-14 Single Family 2420 Marmon Court Santa Clara, CA 95051 $1,399,000 1,836 sq. ft. 10,019 sq. ft. $762
2018-03-14 Single Family Ranch 2609 Castello Way Santa Clara, CA 95051 $1,298,000 1,635 sq. ft. 6,534 sq. ft. $794
2018-03-14 Single Family Ranch 2951 Jerald Avenue Santa Clara, CA 95051 $1,388,000 1,534 sq. ft. 5,663 sq. ft. $905
2018-03-13 Single Family 728 Valley Court Santa Clara, CA 95051 $1,590,000 1,721 sq. ft. 10,890 sq. ft. $924
2018-03-13 Single Family Custom 1177 Fairfield Avenue Santa Clara, CA 95050 $1,499,000 2,601 sq. ft. 6,534 sq. ft. $576
2018-03-13 Single Family 558 Saratoga Avenue Santa Clara, CA 95050 $1,298,000 2,003 sq. ft. 5,663 sq. ft. $648
2018-03-11 Single Family Traditional 412 Knowles Avenue Santa Clara, CA 95050 $2,199,000 3,628 sq. ft. 13,068 sq. ft. $606
2018-03-10 Single Family 1681 Triton Court Santa Clara, CA 95050 $1,199,000 2,088 sq. ft. 3,049 sq. ft. $574
2018-03-09 Single Family 163 Claremont Avenue Santa Clara, CA 95051 $1,699,000 1,292 sq. ft. 6,534 sq. ft. $1,315
2018-03-09 Single Family Spanish 1530 Alviso Street Santa Clara, CA 95050 $1,375,000 1,361 sq. ft. 2,614 sq. ft. $1,010
2018-03-09 Single Family Spanish 840 Civic Center Drive Santa Clara, CA 95050 $1,550,000 1,805 sq. ft. 2,614 sq. ft. $859
2018-03-09 Single Family Spanish 830 Civic Center Drive Santa Clara, CA 95050 $1,550,000 1,890 sq. ft. 3,485 sq. ft. $820
2018-03-09 Single Family Bungalow 4316 Fillmore Street Santa Clara, CA 95054 $599,000 539 sq. ft. 3,485 sq. ft. $1,111
2018-03-08 Single Family 2334 Fatjo Place Santa Clara, CA 95050 $1,698,000 1,717 sq. ft. 6,098 sq. ft. $989
2018-03-08 Single Family 4711 Cheeney Street Santa Clara, CA 95054 $1,350,000 1,667 sq. ft. 2,178 sq. ft. $810
2018-03-07 Single Family 547 Chapman Court Santa Clara, CA 95050 $1,088,000 1,394 sq. ft. 4,356 sq. ft. $780
2018-03-07 Single Family Spanish 1282 Cabrillo Avenue Santa Clara, CA 95050 $1,299,000 1,934 sq. ft. 6,098 sq. ft. $672
2018-03-07 Single Family Bungalow 4144 Cheeney Street Santa Clara, CA 95054 $899,000 1,001 sq. ft. 7,841 sq. ft. $898
2018-03-07 Single Family Ranch 1910 Homestead Road Santa Clara, CA 95050 $1,348,000 1,917 sq. ft. 11,761 sq. ft. $703
2018-03-07 Single Family 2139 King Court Santa Clara, CA 95051 $1,999,950 2,960 sq. ft. 6,534 sq. ft. $676
2018-03-07 Single Family Traditional 3178 Atherton Drive Santa Clara, CA 95051 $2,198,000 1,920 sq. ft. 6,098 sq. ft. $1,145
2018-03-07 Single Family Mediterranean; Spanish 641 Clara Vista Avenue Santa Clara, CA 95050 $1,588,890 1,780 sq. ft. 5,663 sq. ft. $893
2018-03-06 Single Family Ranch 3034 Alexander Avenue Santa Clara, CA 95051 $1,599,000 1,612 sq. ft. 6,534 sq. ft. $992
2018-03-06 Single Family 1689 Hood Court Santa Clara, CA 95051 $1,300,000 1,170 sq. ft. 6,970 sq. ft. $1,111
2018-03-06 Single Family 672 Salberg Avenue Santa Clara, CA 95051 $1,349,000 1,173 sq. ft. 5,227 sq. ft. $1,150
2018-03-05 Single Family 270 N Westridge Drive Santa Clara, CA 95050 $1,280,000 1,234 sq. ft. 6,098 sq. ft. $1,037
2018-03-03 Single Family Traditional 150 Alviso Street Santa Clara, CA 95050 $1,200,000 1,360 sq. ft. 6,534 sq. ft. $882
2018-03-02 Single Family 1174 Fremont Street Santa Clara, CA 95050 $1,695,000 2,849 sq. ft. 6,970 sq. ft. $595
2018-03-01 Single Family 880 Keith Lane Santa Clara, CA 95054 $1,188,000 1,314 sq. ft. 7,405 sq. ft. $904
2018-03-01 Single Family Cottage 880 Keith Ln Santa Clara, CA 95054 $1,188,000 1,314 sq. ft. 7,405 sq. ft. $904
2018-03-01 Single Family 2368 Benton Street Santa Clara, CA 95050 $1,398,880 1,330 sq. ft. 6,534 sq. ft. $1,052
2018-02-28 Single Family Ranch 2369 Fordham Drive Santa Clara, CA 95051 $1,498,890 2,088 sq. ft. 6,098 sq. ft. $718
2018-02-28 Single Family Ranch 1962 Graham Lane Santa Clara, CA 95050 $938,000 1,021 sq. ft. 7,405 sq. ft. $919
2018-02-28 Single Family 3128 Fresno Street Santa Clara, CA 95051 $1,450,000 1,314 sq. ft. 7,841 sq. ft. $1,104
2018-02-28 Single Family Craftsman 148 Cypress Avenue Santa Clara, CA 95050 $2,998,000 3,608 sq. ft. 11,761 sq. ft. $831
2018-02-27 Single Family Victorian 1807 Henning Place Santa Clara, CA 95050 $1,399,000 2,406 sq. ft. 3,049 sq. ft. $581
2018-02-27 Single Family 2574 Amethyst Drive Santa Clara, CA 95051 $1,199,000 1,478 sq. ft. 5,663 sq. ft. $811
2018-02-26 Single Family Ranch 2313 Augusta Place Santa Clara, CA 95051 $1,049,950 1,095 sq. ft. 6,970 sq. ft. $959
2018-02-25 Single Family Ranch 616 Pomeroy Avenue Santa Clara, CA 95051 $1,595,000 2,162 sq. ft. 6,534 sq. ft. $738
2018-02-22 Single Family 2169 Cabrillo Avenue Santa Clara, CA 95050 $1,299,000 1,181 sq. ft. 5,227 sq. ft. $1,100
2018-02-21 Single Family 2107 Calabazas Boulevard Santa Clara, CA 95051 $1,150,000 1,078 sq. ft. 5,227 sq. ft. $1,067
2018-02-21 Single Family 3399 Snively Avenue Santa Clara, CA 95051 $1,180,000 1,166 sq. ft. 5,227 sq. ft. $1,012
2018-02-21 Single Family 3440 Bella Vista Avenue Santa Clara, CA 95051 $1,199,950 1,124 sq. ft. 5,663 sq. ft. $1,068
2018-02-21 Single Family 3464 Notre Dame Drive Santa Clara, CA 95051 $1,925,000 2,711 sq. ft. 6,098 sq. ft. $710
2018-02-20 Single Family 1773 Cabrillo Avenue Santa Clara, CA 95050 $949,000 985 sq. ft. 5,227 sq. ft. $963
2018-02-20 Single Family 932 Maryann Drive Santa Clara, CA 95050 $1,598,000 2,144 sq. ft. 8,712 sq. ft. $745
2018-02-15 Single Family 1826 Market Street Santa Clara, CA 95050 $1,188,000 1,366 sq. ft. 2,614 sq. ft. $870
2018-02-14 Single Family 1442 Main Street Santa Clara, CA 95050 $900,000 627 sq. ft. 6,970 sq. ft. $1,435
2018-02-14 Single Family 3563 Mauricia Avenue Santa Clara, CA 95051 $1,398,000 1,064 sq. ft. 5,663 sq. ft. $1,314
2018-02-13 Single Family Ranch 2844 Ponderosa Way Santa Clara, CA 95051 $1,688,000 1,749 sq. ft. 7,841 sq. ft. $965
2018-02-12 Single Family 162 Brian Lane Santa Clara, CA 95051 $1,699,000 1,136 sq. ft. 6,098 sq. ft. $1,496
2018-02-12 Single Family Ranch 3434 Notre Dame Drive Santa Clara, CA 95051 $1,550,000 1,828 sq. ft. 6,098 sq. ft. $848
2018-02-02 Single Family 2424 Park Avenue Santa Clara, CA 95050 $1,349,950 1,848 sq. ft. 6,534 sq. ft. $730
2018-01-07 Single Family Contemporary 2205 Denise Drive Santa Clara, CA 95050 $2,489,900 3,132 sq. ft. 6,534 sq. ft. $795
2018-01-05 Single Family Contemporary; Mediterranean 2205 Denise Dr Santa Clara, CA 95050 $2,489,900 3,132 sq. ft. 6,098 sq. ft. $795
2017-11-10 Single Family Contemporary 2205 Denise Drive Santa Clara, CA 95050 $2,489,900 3,132 sq. ft. 6,098 sq. ft. $795
2017-06-21 Single Family 928 Madeline Ln Santa Clara, CA 95050 $998,000 1,156 sq. ft. 5,776 sq. ft. $863
2017-06-21 Single Family Ranch 370 Crestview Dr Santa Clara, CA 95050 $1,065,000 1,469 sq. ft. 7,318 sq. ft. $725
2017-06-19 Single Family 793 Park Ct Santa Clara, CA 95050 $1,049,000 1,357 sq. ft. 5,001 sq. ft. $773
2017-06-19 Single Family Contemporary; Ranch 190 Arcadia Ave Santa Clara, CA 95051 $2,175,000 2,432 sq. ft. 8,102 sq. ft. $894
2017-06-15 Single Family Contemporary 833 Laurie Ave Santa Clara, CA 95054 $988,000 1,537 sq. ft. 5,022 sq. ft. $643
2017-06-15 Single Family Contemporary 2321 Talia Ave Santa Clara, CA 95050 $949,900 1,035 sq. ft. 5,702 sq. ft. $918
2017-06-15 Single Family 3136 San Juan Ave Santa Clara, CA 95051 $1,260,000 1,592 sq. ft. 5,719 sq. ft. $791
2017-06-15 Single Family 2579 Borax Dr Santa Clara, CA 95051 $1,180,000 1,396 sq. ft. 5,301 sq. ft. $845
2017-06-14 Single Family 2251 Bohannon Dr Santa Clara, CA 95050 $1,189,000 1,125 sq. ft. 5,702 sq. ft. $1,057
2017-06-14 Single Family 731 San Miguel Ave Santa Clara, CA 95050 $1,398,000 1,825 sq. ft. 5,942 sq. ft. $766
2017-06-14 Single Family Eichler 2509 Hayward Dr Santa Clara, CA 95051 $1,050,000 1,166 sq. ft. 5,406 sq. ft. $901
2017-06-14 Single Family 630 Hamilton Santa Clara, CA 95051 $1,088,000 1,092 sq. ft. 5,001 sq. ft. $996
2017-06-13 Single Family 3155 Warburton Ave Santa Clara, CA 95051 $1,049,000 1,170 sq. ft. 5,554 sq. ft. $897
2017-06-13 Single Family 943 Wren Ct Santa Clara, CA 95051 $2,200,000 2,533 sq. ft. 4,321 sq. ft. $869
2017-06-13 Single Family 963 Wren Ct Santa Clara, CA 95051 $2,350,000 2,662 sq. ft. 4,082 sq. ft. $883
2017-06-13 Single Family 1083 Portola Ave Santa Clara, CA 95050 $949,000 966 sq. ft. 3,742 sq. ft. $982
2017-06-13 Single Family 261 Madrone Ave Santa Clara, CA 95051 $1,700,000 1,837 sq. ft. 7,475 sq. ft. $925
2017-06-13 Single Family Ranch 2312 Bohannon Dr Santa Clara, CA 95050 $1,050,000 1,307 sq. ft. 5,702 sq. ft. $803
2017-06-08 Single Family 1898 Fairway Glen Dr Santa Clara, CA 95054 $1,049,000 1,236 sq. ft. 2,156 sq. ft. $849
2017-06-07 Single Family 1320 Via Dondera Santa Clara, CA 95051 $1,100,000 1,658 sq. ft. 6,146 sq. ft. $663
2017-06-06 Single Family Benton St Santa Clara, CA 95050 $748,000 1,004 sq. ft. 6,599 sq. ft. $745
2017-06-06 Single Family 966 Wren Ct Santa Clara, CA 95051 $2,250,000 2,648 sq. ft. 3,594 sq. ft. $850
2017-06-06 Single Family 976 Wren Ct Santa Clara, CA 95051 $2,400,000 2,981 sq. ft. 5,937 sq. ft. $805
2017-06-06 Single Family 3553 Gibson Ct Santa Clara, CA 95051 $1,988,890 2,304 sq. ft. 7,797 sq. ft. $863
2017-06-03 Single Family 3526 Benton St Santa Clara, CA 95051 $1,039,950 1,166 sq. ft. 5,009 sq. ft. $892
2017-06-03 Single Family Contemporary 3368 Soares Ct Santa Clara, CA 95051 $1,500,000 2,261 sq. ft. 9,975 sq. ft. $663
2017-06-01 Single Family Craftsman 1256 Pierce St Santa Clara, CA 95050 $1,288,890 2,374 sq. ft. 5,053 sq. ft. $543
2017-05-31 Single Family 2380 Homestead Rd 2101 Santa Clara, CA 95050 $945,000 1,630 sq. ft. 1,612 sq. ft. $580
2017-05-31 Single Family 1210 Lincoln St Santa Clara, CA 95050 $1,179,000 1,705 sq. ft. 6,142 sq. ft. $692
2017-05-30 Single Family 752 Scott Blvd Santa Clara, CA 95050 $828,900 1,830 sq. ft. 7,275 sq. ft. $453
2017-05-26 Single Family 3039 Agate Dr Santa Clara, CA 95051 $799,888 897 sq. ft. 5,924 sq. ft. $892
2017-05-26 Single Family 1465 Merrill Pl Santa Clara, CA 95051 $1,159,900 1,861 sq. ft. 1,830 sq. ft. $623
2017-05-26 Single Family 1828 Clay St Santa Clara, CA 95050 $950,000 1,046 sq. ft. 4,792 sq. ft. $908
2017-05-25 Single Family 3477 Warburton Ave Santa Clara, CA 95051 $1,148,000 1,195 sq. ft. 5,053 sq. ft. $961
2017-05-20 Single Family 2087 Hoover Dr Santa Clara, CA 95051 $1,549,000 1,990 sq. ft. 5,358 sq. ft. $778
2017-05-19 Single Family Ranch 653 Los Olivos Drive Santa Clara, CA 95050 $1,249,000 1,862 sq. ft. 5,445 sq. ft. $671
2017-05-17 Single Family 3555 Sunnydays Ln Santa Clara, CA 95051 $1,270,000 1,846 sq. ft. 2,701 sq. ft. $688
2017-05-17 Single Family 2035 Main St Santa Clara, CA 95050 $875,000 1,144 sq. ft. 7,797 sq. ft. $765
2017-05-16 Single Family Vintage 2200 Park Ave Santa Clara, CA 95050 $899,500 1,100 sq. ft. 5,140 sq. ft. $818
2017-05-12 Single Family Ranch 3318 Granada Ave Santa Clara, CA 95051 $1,149,950 1,565 sq. ft. 5,009 sq. ft. $735
2017-05-11 Single Family Bungalow 1425 Harrison St Santa Clara, CA 95050 $924,950 1,089 sq. ft. 5,097 sq. ft. $849
2017-05-10 Single Family Ranch; Traditional 755 Los Olivos Dr Santa Clara, CA 95050 $899,000 1,059 sq. ft. 5,401 sq. ft. $849
2017-05-09 Single Family 1337 Kiely Blvd Santa Clara, CA 95051 $949,950 1,626 sq. ft. 5,314 sq. ft. $584
2017-04-10 Single Family 2410 Marmon Ct Santa Clara, CA 95051 $1,699,950 3,424 sq. ft. 10,019 sq. ft. $496
2017-03-28 Single Family Ranch 746 College Ave Santa Clara, CA 95050 $1,599,000 2,106 sq. ft. 12,589 sq. ft. $759
2017-03-13 Single Family 1882 Homestead Rd Santa Clara, CA 95050 $1,399,950 2,175 sq. ft. 11,195 sq. ft. $644
2017-02-09 Single Family Contemporary Forbes Ave Santa Clara, CA 95050 $1,360,000 2,782 sq. ft. 5,619 sq. ft. $489
2016-09-25 Single Family 1095 Madison St Santa Clara, CA 95050 $1,399,000 1,904 sq. ft. 6,011 sq. ft. $735